createdAt,value
2023-09-21T00:00:58.498Z,11.63
2023-09-21T00:05:56.023Z,10.60
2023-09-21T00:10:51.894Z,10.98
2023-09-21T00:15:45.477Z,10.65
2023-09-21T00:20:44.111Z,10.00
2023-09-21T00:25:38.211Z,10.25
2023-09-21T00:30:32.912Z,11.55
2023-09-21T00:35:28.663Z,11.13
2023-09-21T00:40:23.740Z,10.95
2023-09-21T00:45:19.494Z,13.07
2023-09-21T00:50:15.528Z,12.55
2023-09-21T00:55:09.975Z,10.63
2023-09-21T01:00:07.905Z,11.40
2023-09-21T01:05:02.301Z,9.00
2023-09-21T01:09:58.070Z,10.25
2023-09-21T01:15:10.536Z,10.05
2023-09-21T01:20:20.089Z,10.57
2023-09-21T01:25:16.165Z,9.63
2023-09-21T01:30:13.268Z,11.05
2023-09-21T01:35:08.992Z,9.07
2023-09-21T01:40:02.793Z,13.48
2023-09-21T01:44:57.681Z,13.02
2023-09-21T01:49:51.262Z,10.93
2023-09-21T01:54:44.485Z,10.48
2023-09-21T01:59:37.835Z,12.20
2023-09-21T02:04:32.800Z,10.75
2023-09-21T02:09:27.510Z,11.13
2023-09-21T02:14:21.363Z,13.65
2023-09-21T02:19:15.475Z,13.52
2023-09-21T02:24:10.826Z,10.55
2023-09-21T02:29:05.610Z,9.10
2023-09-21T02:33:59.444Z,11.75
2023-09-21T02:38:52.652Z,10.60
2023-09-21T02:43:47.887Z,8.45
2023-09-21T02:48:42.610Z,9.75
2023-09-21T02:53:36.341Z,11.23
2023-09-21T02:58:29.741Z,11.45
2023-09-21T03:03:24.874Z,12.60
2023-09-21T03:08:19.846Z,13.10
2023-09-21T03:13:18.692Z,14.80
2023-09-21T03:18:16.414Z,14.18
2023-09-21T03:23:13.448Z,12.20
2023-09-21T03:28:11.557Z,10.80
2023-09-21T03:33:06.845Z,12.48
2023-09-21T03:38:00.743Z,12.07
2023-09-21T03:42:58.533Z,12.10
2023-09-21T03:47:53.134Z,14.23
2023-09-21T03:52:48.849Z,16.00
2023-09-21T03:57:42.349Z,14.65
2023-09-21T04:02:38.958Z,15.80
2023-09-21T04:07:32.357Z,17.23
2023-09-21T04:12:25.732Z,13.32
2023-09-21T04:17:19.146Z,13.68
2023-09-21T04:22:13.943Z,12.32
2023-09-21T04:27:07.349Z,15.07
2023-09-21T04:32:02.295Z,14.25
2023-09-21T04:36:55.885Z,15.32
2023-09-21T04:41:50.667Z,12.73
2023-09-21T04:46:44.426Z,13.60
2023-09-21T04:51:39.854Z,13.85
2023-09-21T04:56:33.527Z,13.38
2023-09-21T05:01:29.515Z,16.10
2023-09-21T05:06:24.921Z,11.98
2023-09-21T05:11:18.400Z,16.77
2023-09-21T05:16:11.905Z,15.65
2023-09-21T05:21:06.665Z,13.05
2023-09-21T05:25:59.984Z,11.00
2023-09-21T05:30:55.318Z,10.98
2023-09-21T05:35:55.683Z,11.48
2023-09-21T05:40:50.550Z,11.93
2023-09-21T05:45:43.774Z,10.45
2023-09-21T05:50:37.143Z,12.40
2023-09-21T05:55:30.455Z,10.75
2023-09-21T06:00:25.206Z,11.40
2023-09-21T06:05:20.289Z,13.35
2023-09-21T06:10:14.931Z,10.65
2023-09-21T06:15:09.295Z,9.68
2023-09-21T06:20:04.893Z,8.75
2023-09-21T06:24:58.325Z,9.95
2023-09-21T06:29:51.890Z,12.10
2023-09-21T06:34:45.269Z,10.65
2023-09-21T06:39:39.898Z,13.63
2023-09-21T06:44:33.373Z,11.18
2023-09-21T06:49:28.026Z,9.77
2023-09-21T06:54:24.697Z,9.95
2023-09-21T06:59:19.513Z,7.65
2023-09-21T07:04:12.920Z,9.88
2023-09-21T07:09:06.495Z,8.25
2023-09-21T07:13:59.909Z,10.93
2023-09-21T07:18:54.611Z,7.82
2023-09-21T07:23:47.968Z,7.88
2023-09-21T07:28:41.294Z,9.48
2023-09-21T07:33:34.665Z,8.07
2023-09-21T07:38:29.463Z,7.00
2023-09-21T07:43:22.834Z,8.93
2023-09-21T07:48:17.347Z,8.63
2023-09-21T07:53:11.058Z,8.77
2023-09-21T07:58:08.710Z,8.13
2023-09-21T08:03:01.974Z,10.02
2023-09-21T08:07:55.223Z,7.22
2023-09-21T08:12:49.339Z,7.88
2023-09-21T08:17:44.801Z,7.38
2023-09-21T08:22:38.915Z,7.68
2023-09-21T08:27:32.282Z,8.57
2023-09-21T08:32:25.625Z,9.25
2023-09-21T08:37:20.542Z,9.10
2023-09-21T08:42:14.188Z,8.98
2023-09-21T08:47:27.415Z,8.60
2023-09-21T08:52:29.165Z,8.60
2023-09-21T08:57:22.513Z,8.68
2023-09-21T09:02:16.227Z,10.38
2023-09-21T09:07:09.666Z,9.10
2023-09-21T09:12:04.366Z,7.97
2023-09-21T09:16:57.546Z,8.73
2023-09-21T09:21:53.352Z,9.73
2023-09-21T09:26:46.585Z,7.60
2023-09-21T09:31:43.636Z,7.20
2023-09-21T09:36:39.914Z,6.35
2023-09-21T09:41:33.503Z,8.85
2023-09-21T09:46:28.903Z,9.73
2023-09-21T09:51:32.310Z,8.43
2023-09-21T09:56:28.098Z,6.20
2023-09-21T10:01:23.085Z,8.93
2023-09-21T10:06:19.748Z,8.90
2023-09-21T10:11:16.328Z,8.38
2023-09-21T10:16:14.533Z,7.57
2023-09-21T10:21:33.124Z,6.00
2023-09-21T10:26:27.938Z,7.17
2023-09-21T10:31:26.192Z,6.43
2023-09-21T10:36:21.236Z,8.00
2023-09-21T10:41:36.197Z,6.35
2023-09-21T10:46:33.519Z,7.50
2023-09-21T10:51:32.506Z,9.60
2023-09-21T10:56:26.268Z,7.22
2023-09-21T11:01:22.827Z,9.15
2023-09-21T11:06:17.584Z,6.88
2023-09-21T11:11:13.846Z,9.38
2023-09-21T11:16:07.446Z,5.95
2023-09-21T11:21:02.321Z,8.57
2023-09-21T11:25:55.591Z,6.22
2023-09-21T11:30:52.240Z,7.13
2023-09-21T11:35:47.498Z,7.40
2023-09-21T11:40:42.714Z,6.38
2023-09-21T11:45:37.287Z,5.55
2023-09-21T11:50:33.565Z,8.07
2023-09-21T11:55:28.802Z,7.75
2023-09-21T12:00:48.695Z,9.30
2023-09-21T12:05:44.787Z,6.40
2023-09-21T12:10:38.186Z,5.47
2023-09-21T12:15:33.728Z,8.20
2023-09-21T12:20:27.415Z,6.70
2023-09-21T12:25:21.639Z,8.77
2023-09-21T12:30:17.803Z,6.70
2023-09-21T12:35:18.382Z,6.67
2023-09-21T12:40:13.841Z,7.63
2023-09-21T12:45:08.702Z,7.55
2023-09-21T12:50:02.238Z,7.20
2023-09-21T12:54:57.029Z,6.68
2023-09-21T12:59:51.267Z,5.78
2023-09-21T13:04:46.075Z,6.43
2023-09-21T13:14:41.833Z,6.63
2023-09-21T13:19:35.179Z,8.57
2023-09-21T13:24:28.457Z,6.05
2023-09-21T13:29:21.848Z,10.52
2023-09-21T13:34:16.570Z,8.07
2023-09-21T13:39:10.426Z,5.40
2023-09-21T13:44:04.101Z,7.68
2023-09-21T13:48:58.345Z,6.88
2023-09-21T13:53:53.080Z,7.97
2023-09-21T13:58:46.305Z,6.95
2023-09-21T14:03:39.968Z,7.13
2023-09-21T14:08:33.409Z,6.75
2023-09-21T14:13:28.155Z,7.57
2023-09-21T14:18:21.584Z,6.18
2023-09-21T14:23:17.532Z,8.40
2023-09-21T14:28:11.261Z,8.15
2023-09-21T14:33:08.702Z,12.00
2023-09-21T14:38:02.300Z,10.45
2023-09-21T14:42:56.345Z,12.82
2023-09-21T14:47:49.896Z,8.40
2023-09-21T14:52:44.501Z,10.60
2023-09-21T14:57:37.905Z,10.38
2023-09-21T15:02:32.582Z,7.63
2023-09-21T15:07:27.379Z,7.60
2023-09-21T15:12:22.207Z,9.63
2023-09-21T15:17:15.606Z,9.30
2023-09-21T15:22:09.017Z,11.75
2023-09-21T15:27:02.330Z,9.65
2023-09-21T15:31:57.848Z,8.38
2023-09-21T15:36:51.462Z,7.07
2023-09-21T15:41:44.810Z,9.20
2023-09-21T15:46:39.640Z,7.50
2023-09-21T15:51:34.875Z,9.18
2023-09-21T15:56:28.130Z,12.00
2023-09-21T16:01:21.485Z,13.27
2023-09-21T16:06:14.951Z,12.57
2023-09-21T16:11:09.824Z,11.70
2023-09-21T16:16:06.075Z,10.23
2023-09-21T16:20:59.526Z,15.98
2023-09-21T16:25:53.013Z,12.07
2023-09-21T16:30:48.137Z,11.57
2023-09-21T16:35:41.414Z,12.75
2023-09-21T16:40:36.887Z,14.95
2023-09-21T16:45:33.156Z,13.07
2023-09-21T16:50:28.526Z,15.90
2023-09-21T16:55:24.123Z,12.50
2023-09-21T17:00:18.456Z,16.27
2023-09-21T17:05:11.730Z,17.20
2023-09-21T17:10:07.893Z,11.85
2023-09-21T17:15:01.177Z,14.57
2023-09-21T17:19:55.389Z,8.57
2023-09-21T17:24:52.050Z,9.55
2023-09-21T17:29:47.494Z,9.13
2023-09-21T17:34:41.086Z,13.80
2023-09-21T17:39:34.652Z,8.55
2023-09-21T17:44:29.033Z,8.52
2023-09-21T17:49:23.809Z,10.60
2023-09-21T17:54:17.258Z,10.57
2023-09-21T17:59:10.469Z,9.98
2023-09-21T18:04:04.282Z,11.77
2023-09-21T18:08:59.063Z,9.65
2023-09-21T18:13:52.872Z,8.18
2023-09-21T18:18:48.001Z,6.90
2023-09-21T18:23:42.596Z,11.63
2023-09-21T18:28:38.352Z,14.38
2023-09-21T18:33:31.576Z,9.07
2023-09-21T18:38:27.895Z,10.68
2023-09-21T18:43:21.921Z,11.48
2023-09-21T18:48:16.608Z,7.05
2023-09-21T18:53:09.993Z,9.20
2023-09-21T18:58:03.175Z,8.23
2023-09-21T19:02:56.476Z,7.00
2023-09-21T19:07:51.254Z,11.07
2023-09-21T19:12:44.743Z,8.38
2023-09-21T19:17:40.221Z,8.50
2023-09-21T19:22:35.825Z,7.80
2023-09-21T19:27:31.640Z,6.60
2023-09-21T19:32:25.328Z,9.25
2023-09-21T19:37:19.649Z,8.02
2023-09-21T19:42:13.147Z,7.85
2023-09-21T19:47:08.133Z,6.10
2023-09-21T19:52:01.512Z,11.40
2023-09-21T19:56:55.552Z,13.00
2023-09-21T20:01:48.816Z,5.22
2023-09-21T20:06:46.070Z,11.18
2023-09-21T20:11:39.527Z,10.02
2023-09-21T20:16:32.823Z,9.10
2023-09-21T20:21:27.541Z,6.43
2023-09-21T20:26:22.329Z,6.40
2023-09-21T20:31:15.783Z,8.27
2023-09-21T20:36:09.688Z,6.00
2023-09-21T20:41:02.911Z,8.05
2023-09-21T20:45:57.615Z,5.72
2023-09-21T20:50:51.167Z,5.78
2023-09-21T20:55:44.393Z,6.93
2023-09-21T21:00:37.564Z,5.28
2023-09-21T21:05:32.376Z,6.07
2023-09-21T21:10:25.740Z,6.35
2023-09-21T21:15:19.096Z,7.43
2023-09-21T21:20:13.419Z,5.78
2023-09-21T21:25:09.430Z,6.60
2023-09-21T21:30:04.241Z,5.07
2023-09-21T21:34:57.544Z,5.85
2023-09-21T21:39:50.781Z,7.43
2023-09-21T21:44:45.563Z,5.25
2023-09-21T21:49:38.857Z,6.47
2023-09-21T21:54:32.046Z,7.35
2023-09-21T21:59:25.742Z,6.50
2023-09-21T22:04:20.374Z,7.10
2023-09-21T22:09:14.262Z,6.47
2023-09-21T22:14:08.412Z,4.63
2023-09-21T22:19:01.700Z,7.65
2023-09-21T22:23:56.475Z,6.18
2023-09-21T22:28:49.646Z,7.60
2023-09-21T22:33:42.823Z,8.88
2023-09-21T22:38:37.060Z,5.18
2023-09-21T22:43:33.297Z,6.15
2023-09-21T22:48:26.897Z,8.88
2023-09-21T22:53:21.990Z,5.53
2023-09-21T22:58:15.142Z,6.47
2023-09-21T23:03:09.728Z,6.60
2023-09-21T23:08:06.719Z,6.05
2023-09-21T23:13:00.426Z,6.10
2023-09-21T23:17:53.872Z,6.30
2023-09-21T23:22:50.908Z,7.55
2023-09-21T23:27:44.353Z,6.32
2023-09-21T23:32:38.498Z,5.95
2023-09-21T23:37:31.757Z,6.88
2023-09-21T23:42:29.840Z,7.70
2023-09-21T23:47:23.261Z,5.78
2023-09-21T23:52:17.034Z,5.75
2023-09-21T23:57:10.224Z,6.43
